Terminal Aerodrome Forecast
Issued by NWS

Home | Current Version | Previous Version | Text Only | Print | Product List | Glossary On
Versions: 1 2 3 4 5 6 7 8 9 10 11 12 13 14 15 16
000
FTUS42 KMLB 251501 AAA
TAFTIX
TAF AMD
KTIX 251501Z 2515/2612 10013KT P6SM SCT040
     FM260100 08008KT P6SM SKC=

USA.gov is the U.S. government's official web portal to all federal, state and local government web resources and services.